TimeEDT,TemperatureF,Dew PointF,Humidity,Sea Level PressureIn,VisibilityMPH,Wind Direction,Wind SpeedMPH,Gust SpeedMPH,PrecipitationIn,Events,Conditions,WindDirDegrees,DateUTC
12:53 AM,75.9,64.0,67,30.02,10.0,ESE,13.8,-,N/A,,Scattered Clouds,120,2013-04-29 04:53:00
1:53 AM,75.9,63.0,64,30.00,10.0,ESE,11.5,-,N/A,,Scattered Clouds,120,2013-04-29 05:53:00
2:53 AM,75.0,64.0,69,29.99,10.0,SE,9.2,-,N/A,,Scattered Clouds,130,2013-04-29 06:53:00
3:53 AM,75.9,64.9,69,29.98,10.0,ESE,13.8,-,N/A,,Mostly Cloudy,120,2013-04-29 07:53:00
4:53 AM,75.9,64.0,67,29.99,10.0,SE,12.7,-,N/A,,Mostly Cloudy,130,2013-04-29 08:53:00
5:53 AM,75.0,64.9,71,29.99,10.0,SE,11.5,-,N/A,,Scattered Clouds,130,2013-04-29 09:53:00
6:53 AM,75.9,66.0,71,30.00,10.0,ESE,11.5,-,N/A,,Mostly Cloudy,110,2013-04-29 10:53:00
7:53 AM,77.0,66.0,69,30.01,10.0,ESE,11.5,-,N/A,,Mostly Cloudy,120,2013-04-29 11:53:00
8:53 AM,78.1,66.9,68,30.02,9.0,SE,12.7,-,N/A,,Mostly Cloudy,130,2013-04-29 12:53:00
9:18 AM,78.8,66.2,65,30.02,10.0,SE,16.1,-,N/A,,Mostly Cloudy,130,2013-04-29 13:18:00
9:30 AM,78.8,66.2,65,30.02,10.0,ESE,13.8,21.9,N/A,,Scattered Clouds,120,2013-04-29 13:30:00
9:53 AM,79.0,66.9,66,30.02,10.0,ESE,13.8,-,N/A,,Mostly Cloudy,120,2013-04-29 13:53:00
10:53 AM,81.0,68.0,65,30.04,10.0,SE,17.3,-,N/A,,Scattered Clouds,130,2013-04-29 14:53:00
11:53 AM,81.0,69.1,67,30.03,9.0,ESE,16.1,-,N/A,,Scattered Clouds,120,2013-04-29 15:53:00
12:53 PM,82.9,70.0,65,30.01,10.0,SE,17.3,23.0,N/A,,Scattered Clouds,140,2013-04-29 16:53:00
1:53 PM,80.1,70.0,71,30.01,10.0,SE,18.4,-,N/A,,Partly Cloudy,140,2013-04-29 17:53:00
2:53 PM,79.0,69.1,72,29.98,10.0,SE,13.8,-,N/A,,Scattered Clouds,130,2013-04-29 18:53:00
3:53 PM,78.1,70.0,76,29.99,10.0,ESE,12.7,-,N/A,,Mostly Cloudy,120,2013-04-29 19:53:00
3:55 PM,78.8,69.8,74,29.99,10.0,ESE,11.5,-,N/A,,Mostly Cloudy,120,2013-04-29 19:55:00
4:14 PM,78.8,69.8,74,29.99,10.0,SE,11.5,-,N/A,,Mostly Cloudy,130,2013-04-29 20:14:00
4:20 PM,78.8,69.8,74,29.99,9.0,SE,11.5,-,0.00,Rain-Thunderstorm,Light Thunderstorms and Rain,130,2013-04-29 20:20:00
4:44 PM,77.0,71.6,83,29.98,10.0,SSE,9.2,-,0.01,Rain,Light Rain,150,2013-04-29 20:44:00
4:53 PM,77.0,70.0,79,29.98,10.0,SE,8.1,-,0.01,,Overcast,140,2013-04-29 20:53:00
5:15 PM,77.0,71.6,83,29.97,10.0,SSE,6.9,-,0.01,Rain-Thunderstorm,Light Thunderstorms and Rain,150,2013-04-29 21:15:00
5:21 PM,77.0,71.6,83,29.97,10.0,SSE,6.9,-,0.01,Rain-Thunderstorm,Light Thunderstorms and Rain,160,2013-04-29 21:21:00
5:27 PM,77.0,71.6,83,29.96,10.0,South,8.1,-,0.01,Rain-Thunderstorm,Light Thunderstorms and Rain,170,2013-04-29 21:27:00
5:35 PM,77.0,71.6,83,29.96,10.0,SSE,9.2,-,0.01,Rain,Light Rain,150,2013-04-29 21:35:00
5:45 PM,77.0,71.6,83,29.96,10.0,SSE,8.1,-,0.01,Rain,Light Rain,150,2013-04-29 21:45:00
5:53 PM,77.0,72.0,84,29.96,10.0,SE,9.2,-,0.01,Rain,Light Rain,140,2013-04-29 21:53:00
6:53 PM,75.9,70.0,82,29.95,10.0,SE,9.2,-,0.00,Rain,Light Rain,130,2013-04-29 22:53:00
7:01 PM,75.2,69.8,83,29.95,10.0,SE,10.4,-,0.00,,Mostly Cloudy,130,2013-04-29 23:01:00
7:53 PM,77.0,71.1,82,29.96,10.0,ESE,8.1,-,0.00,,Mostly Cloudy,120,2013-04-29 23:53:00
8:53 PM,77.0,71.1,82,29.97,10.0,ESE,9.2,-,N/A,,Mostly Cloudy,120,2013-04-30 00:53:00
9:53 PM,77.0,70.0,79,29.96,10.0,SE,11.5,-,0.00,,Scattered Clouds,130,2013-04-30 01:53:00
10:53 PM,77.0,71.1,82,29.97,10.0,SE,10.4,19.6,0.00,,Partly Cloudy,140,2013-04-30 02:53:00
11:53 PM,77.0,71.1,82,29.97,10.0,SSE,10.4,-,N/A,,Scattered Clouds,150,2013-04-30 03:53:00